Adams Center, New York
Current Conditions -  °F | °C
As of 6:56 AM on Saturday 25 Oct 2014 (Local Time) from KART Reporting Station
Overcast Overcast  
Wind Chill: 44°   Ceiling: 5000
Heat Index: 47°   Visibility: 10mi
Dew Point: 40°   Wind: 6mph
Humidity: 77%   Direction: 190°S
Pressure: 29.81"   Gusts: NA
Location:  43.86°N, 76°W
Report Text: KART 251056Z AUTO 19005KT 10SM OVC050 08/04 A2981 RMK AO2 SLP095 T00830044
Loading
Personal Weather Stations






























Interactive Weather Map
Tropical Storm Tracking
New forecast layout! Learn more

10-Day Weather Forecast

Advertisements
Track Severe Weather on mobile